createdAt,value
2023-05-07T00:00:33.012Z,18.11
2023-05-07T00:03:02.817Z,18.08
2023-05-07T00:05:32.561Z,18.07
2023-05-07T00:08:01.451Z,17.73
2023-05-07T00:10:32.691Z,18.06
2023-05-07T00:13:04.530Z,17.95
2023-05-07T00:15:34.621Z,17.68
2023-05-07T00:18:04.435Z,17.75
2023-05-07T00:20:35.596Z,17.74
2023-05-07T00:23:04.826Z,17.73
2023-05-07T00:25:36.670Z,17.37
2023-05-07T00:28:06.176Z,17.30
2023-05-07T00:30:34.968Z,17.63
2023-05-07T00:33:04.024Z,17.64
2023-05-07T00:35:32.845Z,16.85
2023-05-07T00:38:02.056Z,17.32
2023-05-07T00:40:30.958Z,17.17
2023-05-07T00:43:03.821Z,17.27
2023-05-07T00:45:33.625Z,17.39
2023-05-07T00:48:05.065Z,17.57
2023-05-07T00:50:35.152Z,17.55
2023-05-07T00:53:05.620Z,17.86
2023-05-07T00:55:36.895Z,17.91
2023-05-07T00:58:10.773Z,17.94
2023-05-07T01:00:40.762Z,18.00
2023-05-07T01:03:10.095Z,17.96
2023-05-07T01:05:41.376Z,17.79
2023-05-07T01:08:12.166Z,17.93
2023-05-07T01:10:48.104Z,17.88
2023-05-07T01:13:19.287Z,17.81
2023-05-07T01:15:48.996Z,17.81
2023-05-07T01:18:18.306Z,17.81
2023-05-07T01:20:47.681Z,17.68
2023-05-07T01:23:19.655Z,17.50
2023-05-07T01:25:55.750Z,17.50
2023-05-07T01:28:25.017Z,17.60
2023-05-07T01:31:02.507Z,17.50
2023-05-07T01:33:38.802Z,17.69
2023-05-07T01:36:10.327Z,17.83
2023-05-07T01:38:43.601Z,17.83
2023-05-07T01:41:12.252Z,17.84
2023-05-07T01:43:42.416Z,17.75
2023-05-07T01:46:13.467Z,17.85
2023-05-07T01:48:47.224Z,17.84
2023-05-07T01:51:17.740Z,17.87
2023-05-07T01:53:52.069Z,17.83
2023-05-07T01:56:22.540Z,17.70
2023-05-07T01:58:53.054Z,17.86
2023-05-07T02:01:27.025Z,17.60
2023-05-07T02:03:57.148Z,17.89
2023-05-07T02:06:27.870Z,17.91
2023-05-07T02:09:00.657Z,17.96
2023-05-07T02:11:29.443Z,17.52
2023-05-07T02:14:00.186Z,18.00
2023-05-07T02:16:31.680Z,18.06
2023-05-07T02:19:02.607Z,18.01
2023-05-07T02:21:33.649Z,17.98
2023-05-07T02:24:04.634Z,17.70
2023-05-07T02:26:35.391Z,17.89
2023-05-07T02:29:05.658Z,17.76
2023-05-07T02:31:35.386Z,17.69
2023-05-07T02:34:06.893Z,17.88
2023-05-07T02:36:49.301Z,17.81
2023-05-07T02:39:22.915Z,17.87
2023-05-07T02:41:53.703Z,17.85
2023-05-07T02:44:25.701Z,17.76
2023-05-07T02:46:57.864Z,17.75
2023-05-07T02:49:28.823Z,17.50
2023-05-07T02:51:57.682Z,17.77
2023-05-07T02:54:27.777Z,17.83
2023-05-07T02:56:57.792Z,17.77
2023-05-07T02:59:29.023Z,17.78
2023-05-07T03:01:57.866Z,17.94
2023-05-07T03:04:28.379Z,18.01
2023-05-07T03:06:57.782Z,17.96
2023-05-07T03:09:28.037Z,17.94
2023-05-07T03:11:57.347Z,17.97
2023-05-07T03:14:27.082Z,17.87
2023-05-07T03:16:58.201Z,18.00
2023-05-07T03:19:27.706Z,17.92
2023-05-07T03:21:59.660Z,17.89
2023-05-07T03:24:30.962Z,17.83
2023-05-07T03:27:01.619Z,17.95
2023-05-07T03:29:32.189Z,17.88
2023-05-07T03:32:04.462Z,17.88
2023-05-07T03:34:34.582Z,17.77
2023-05-07T03:37:03.086Z,17.84
2023-05-07T03:39:38.239Z,17.58
2023-05-07T03:42:07.560Z,17.60
2023-05-07T03:44:38.681Z,17.65
2023-05-07T03:47:07.665Z,17.60
2023-05-07T03:49:42.620Z,17.60
2023-05-07T03:52:12.229Z,17.60
2023-05-07T03:54:51.363Z,17.51
2023-05-07T03:57:22.641Z,17.56
2023-05-07T03:59:53.213Z,17.49
2023-05-07T04:02:28.186Z,17.53
2023-05-07T04:05:00.272Z,17.44
2023-05-07T04:07:29.923Z,17.48
2023-05-07T04:10:00.423Z,17.55
2023-05-07T04:12:31.502Z,17.55
2023-05-07T04:15:02.316Z,17.60
2023-05-07T04:17:36.159Z,17.60
2023-05-07T04:20:08.556Z,17.41
2023-05-07T04:22:39.288Z,17.54
2023-05-07T04:25:13.912Z,17.18
2023-05-07T04:27:46.432Z,17.12
2023-05-07T04:30:20.235Z,17.00
2023-05-07T04:32:51.611Z,17.10
2023-05-07T04:35:25.118Z,16.97
2023-05-07T04:37:56.430Z,17.34
2023-05-07T04:40:32.032Z,17.08
2023-05-07T04:43:05.189Z,17.08
2023-05-07T04:45:36.968Z,17.25
2023-05-07T04:48:08.721Z,17.22
2023-05-07T04:50:38.320Z,17.36
2023-05-07T04:53:07.879Z,17.37
2023-05-07T04:55:42.234Z,17.50
2023-05-07T04:58:13.574Z,17.74
2023-05-07T05:00:43.693Z,17.72
2023-05-07T05:03:14.738Z,17.82
2023-05-07T05:05:47.416Z,17.98
2023-05-07T05:08:21.150Z,17.87
2023-05-07T05:10:55.103Z,17.89
2023-05-07T05:13:28.516Z,17.65
2023-05-07T05:16:03.895Z,17.84
2023-05-07T05:18:35.301Z,17.53
2023-05-07T05:21:08.390Z,17.58
2023-05-07T05:23:41.087Z,17.81
2023-05-07T05:26:19.318Z,17.79
2023-05-07T05:28:49.780Z,17.52
2023-05-07T05:31:25.649Z,17.93
2023-05-07T05:33:55.764Z,17.74
2023-05-07T05:36:41.073Z,17.58
2023-05-07T05:39:16.218Z,17.90
2023-05-07T05:41:54.295Z,17.98
2023-05-07T05:44:24.227Z,17.50
2023-05-07T05:46:58.868Z,17.67
2023-05-07T05:49:31.944Z,17.93
2023-05-07T05:52:14.275Z,17.55
2023-05-07T05:54:51.809Z,17.67
2023-05-07T05:57:28.615Z,18.31
2023-05-07T06:00:02.917Z,17.93
2023-05-07T06:02:32.662Z,17.70
2023-05-07T06:05:12.248Z,18.05
2023-05-07T06:07:42.194Z,18.19
2023-05-07T06:10:12.313Z,17.67
2023-05-07T06:12:46.914Z,18.51
2023-05-07T06:15:19.417Z,18.18
2023-05-07T06:17:58.400Z,18.34
2023-05-07T06:20:30.532Z,18.43
2023-05-07T06:23:04.179Z,18.61
2023-05-07T06:25:36.283Z,18.53
2023-05-07T06:28:14.253Z,18.91
2023-05-07T06:30:44.906Z,18.65
2023-05-07T06:33:18.866Z,18.84
2023-05-07T06:35:48.384Z,18.48
2023-05-07T06:38:18.977Z,18.46
2023-05-07T06:40:51.790Z,18.48
2023-05-07T06:43:23.160Z,18.71
2023-05-07T06:45:57.804Z,18.51
2023-05-07T06:48:27.027Z,19.16
2023-05-07T06:50:59.850Z,19.12
2023-05-07T06:53:29.703Z,18.49
2023-05-07T06:56:01.274Z,18.90
2023-05-07T06:58:35.692Z,19.09
2023-05-07T07:01:05.781Z,19.01
2023-05-07T07:03:36.260Z,19.50
2023-05-07T07:06:06.007Z,19.17
2023-05-07T07:08:39.191Z,19.08
2023-05-07T07:11:14.872Z,19.86
2023-05-07T07:13:47.688Z,20.06
2023-05-07T07:16:22.963Z,20.00
2023-05-07T07:18:52.647Z,19.64
2023-05-07T07:21:25.864Z,19.87
2023-05-07T07:23:56.509Z,19.25
2023-05-07T07:26:27.453Z,19.63
2023-05-07T07:28:59.886Z,19.02
2023-05-07T07:31:32.927Z,19.11
2023-05-07T07:34:03.897Z,18.78
2023-05-07T07:36:42.810Z,19.38
2023-05-07T07:39:18.589Z,19.41
2023-05-07T07:41:50.384Z,19.94
2023-05-07T07:44:25.994Z,20.16
2023-05-07T07:46:57.346Z,19.61
2023-05-07T07:49:26.962Z,20.32
2023-05-07T07:52:00.557Z,20.02
2023-05-07T07:54:31.482Z,20.03
2023-05-07T07:57:02.733Z,20.57
2023-05-07T07:59:35.332Z,20.49
2023-05-07T08:02:05.351Z,20.63
2023-05-07T08:04:36.583Z,21.22
2023-05-07T08:07:06.417Z,20.89
2023-05-07T08:09:41.799Z,21.08
2023-05-07T08:12:15.025Z,21.40
2023-05-07T08:14:47.790Z,21.32
2023-05-07T08:17:18.967Z,21.64
2023-05-07T08:19:50.909Z,21.61
2023-05-07T08:22:27.045Z,21.44
2023-05-07T08:24:57.839Z,21.60
2023-05-07T08:27:27.808Z,22.36
2023-05-07T08:30:03.545Z,22.03
2023-05-07T08:32:36.469Z,21.16
2023-05-07T08:35:09.952Z,21.44
2023-05-07T08:37:40.862Z,22.02
2023-05-07T08:40:14.508Z,21.10
2023-05-07T08:42:47.139Z,21.20
2023-05-07T08:45:24.363Z,21.13
2023-05-07T08:48:14.328Z,20.77
2023-05-07T08:50:44.034Z,21.74
2023-05-07T08:53:16.653Z,21.20
2023-05-07T08:55:46.243Z,21.03
2023-05-07T08:58:18.446Z,21.25
2023-05-07T09:00:55.542Z,21.21
2023-05-07T09:03:24.406Z,22.34
2023-05-07T09:05:54.170Z,21.66
2023-05-07T09:08:28.787Z,21.12
2023-05-07T09:11:02.134Z,20.73
2023-05-07T09:13:31.473Z,21.33
2023-05-07T09:16:15.453Z,21.41
2023-05-07T09:18:44.820Z,22.13
2023-05-07T09:21:16.996Z,21.21
2023-05-07T09:23:49.257Z,22.34
2023-05-07T09:26:20.519Z,22.86
2023-05-07T09:28:49.030Z,22.58
2023-05-07T09:31:22.854Z,22.26
2023-05-07T09:33:52.202Z,22.17
2023-05-07T09:36:21.546Z,22.53
2023-05-07T09:38:53.208Z,23.59
2023-05-07T09:41:26.284Z,22.68
2023-05-07T09:43:58.132Z,23.41
2023-05-07T09:46:35.061Z,23.43
2023-05-07T09:51:48.020Z,22.68
2023-05-07T09:54:16.852Z,23.45
2023-05-07T09:56:48.118Z,23.20
2023-05-07T09:59:19.757Z,22.33
2023-05-07T10:02:01.563Z,23.40
2023-05-07T10:04:34.826Z,23.65
2023-05-07T10:07:07.269Z,24.33
2023-05-07T10:09:39.506Z,23.57
2023-05-07T10:12:10.331Z,23.62
2023-05-07T10:14:41.228Z,23.21
2023-05-07T10:17:14.416Z,23.46
2023-05-07T10:19:46.483Z,23.84
2023-05-07T10:22:17.910Z,24.00
2023-05-07T10:24:51.576Z,24.56
2023-05-07T10:27:21.558Z,24.44
2023-05-07T10:30:02.234Z,24.17
2023-05-07T10:32:45.930Z,25.02
2023-05-07T10:35:22.699Z,23.93
2023-05-07T10:37:54.764Z,24.44
2023-05-07T10:40:29.220Z,24.02
2023-05-07T10:43:01.716Z,24.44
2023-05-07T10:45:32.066Z,24.76
2023-05-07T10:48:28.897Z,24.97
2023-05-07T10:51:24.796Z,24.30
2023-05-07T10:54:21.567Z,25.72
2023-05-07T10:56:52.074Z,25.87
2023-05-07T10:59:46.804Z,26.11
2023-05-07T11:02:16.858Z,25.51
2023-05-07T11:04:48.361Z,25.60
2023-05-07T11:07:32.073Z,25.41
2023-05-07T11:10:05.541Z,25.71
2023-05-07T11:12:58.574Z,25.69
2023-05-07T11:15:44.451Z,25.93
2023-05-07T11:18:17.580Z,26.38
2023-05-07T11:21:01.237Z,26.56
2023-05-07T11:24:03.167Z,26.35
2023-05-07T11:26:34.124Z,25.65
2023-05-07T11:29:03.423Z,25.01
2023-05-07T11:31:34.354Z,26.23
2023-05-07T11:34:11.885Z,26.28
2023-05-07T11:36:49.505Z,25.87
2023-05-07T11:39:30.197Z,25.45
2023-05-07T11:41:59.297Z,26.29
2023-05-07T11:44:43.845Z,26.62
2023-05-07T11:47:14.980Z,26.17
2023-05-07T11:49:45.662Z,25.45
2023-05-07T11:52:15.999Z,26.03
2023-05-07T11:54:52.078Z,27.36
2023-05-07T11:57:22.958Z,26.58
2023-05-07T11:59:59.503Z,26.23
2023-05-07T12:02:30.574Z,26.43
2023-05-07T12:05:03.640Z,26.30
2023-05-07T12:07:37.718Z,26.73
2023-05-07T12:10:12.802Z,26.42
2023-05-07T12:12:43.154Z,26.81
2023-05-07T12:15:14.761Z,27.46
2023-05-07T12:17:46.023Z,28.70
2023-05-07T12:20:29.787Z,27.69
2023-05-07T12:23:01.645Z,29.16
2023-05-07T12:25:34.796Z,28.10
2023-05-07T12:28:09.325Z,27.38
2023-05-07T12:30:40.894Z,28.08
2023-05-07T12:33:10.843Z,29.63
2023-05-07T12:35:42.169Z,29.05
2023-05-07T12:38:20.074Z,30.16
2023-05-07T12:40:52.359Z,29.53
2023-05-07T12:43:21.494Z,30.11
2023-05-07T12:45:56.857Z,29.52
2023-05-07T12:48:31.325Z,28.52
2023-05-07T12:51:02.600Z,28.47
2023-05-07T12:53:34.328Z,28.17
2023-05-07T12:56:07.985Z,27.35
2023-05-07T12:58:41.615Z,28.74
2023-05-07T13:01:16.833Z,27.44
2023-05-07T13:03:52.448Z,27.59
2023-05-07T13:06:23.036Z,27.14
2023-05-07T13:08:56.644Z,27.25
2023-05-07T13:11:29.130Z,29.04
2023-05-07T13:14:00.373Z,28.54
2023-05-07T13:16:30.904Z,28.41
2023-05-07T13:18:59.368Z,27.33
2023-05-07T13:21:34.077Z,27.08
2023-05-07T13:24:06.092Z,26.78
2023-05-07T13:26:35.988Z,27.76
2023-05-07T13:29:05.480Z,27.46
2023-05-07T13:31:37.436Z,28.26
2023-05-07T13:34:06.511Z,28.07
2023-05-07T13:36:42.102Z,27.92
2023-05-07T13:39:15.738Z,28.73
2023-05-07T13:41:46.329Z,29.25
2023-05-07T13:44:15.796Z,28.98
2023-05-07T13:46:46.262Z,28.36
2023-05-07T13:49:15.866Z,28.59
2023-05-07T13:51:44.206Z,28.88
2023-05-07T13:54:14.013Z,29.06
2023-05-07T13:56:42.705Z,28.69
2023-05-07T13:59:15.571Z,28.83
2023-05-07T14:01:45.248Z,28.65
2023-05-07T14:04:14.046Z,28.85
2023-05-07T14:06:43.413Z,28.20
2023-05-07T14:09:16.679Z,28.42
2023-05-07T14:11:52.172Z,27.65
2023-05-07T14:14:22.863Z,27.86
2023-05-07T14:16:53.653Z,27.77
2023-05-07T14:19:24.665Z,27.86
2023-05-07T14:21:56.539Z,27.34
2023-05-07T14:24:38.032Z,27.52
2023-05-07T14:27:11.167Z,26.42
2023-05-07T14:29:40.147Z,27.01
2023-05-07T14:32:10.576Z,26.68
2023-05-07T14:34:39.820Z,26.83
2023-05-07T14:37:09.487Z,25.94
2023-05-07T14:39:45.053Z,26.59
2023-05-07T14:42:22.123Z,25.30
2023-05-07T14:44:51.376Z,25.19
2023-05-07T14:47:21.836Z,25.67
2023-05-07T14:49:51.476Z,25.10
2023-05-07T14:52:23.244Z,25.46
2023-05-07T14:54:55.902Z,25.76
2023-05-07T14:57:26.755Z,25.50
2023-05-07T14:59:55.979Z,25.23
2023-05-07T15:02:25.143Z,25.27
2023-05-07T15:04:55.946Z,25.22
2023-05-07T15:07:25.663Z,25.32
2023-05-07T15:09:58.088Z,25.08
2023-05-07T15:12:28.903Z,24.70
2023-05-07T15:14:59.709Z,24.96
2023-05-07T15:17:31.501Z,24.41
2023-05-07T15:20:02.926Z,23.51
2023-05-07T15:22:32.398Z,23.38
2023-05-07T15:25:06.830Z,23.50
2023-05-07T15:27:35.811Z,23.84
2023-05-07T15:30:06.754Z,23.43
2023-05-07T15:32:38.602Z,22.74
2023-05-07T15:35:14.071Z,22.69
2023-05-07T15:37:45.393Z,22.81
2023-05-07T15:40:18.174Z,22.79
2023-05-07T15:42:52.700Z,22.37
2023-05-07T15:45:26.138Z,22.47
2023-05-07T15:47:56.496Z,21.66
2023-05-07T15:50:26.589Z,21.32
2023-05-07T15:52:55.557Z,21.36
2023-05-07T15:55:26.460Z,21.61
2023-05-07T15:57:58.379Z,21.38
2023-05-07T16:00:32.024Z,21.19
2023-05-07T16:03:01.778Z,20.96
2023-05-07T16:05:31.978Z,20.97
2023-05-07T16:08:01.145Z,21.10
2023-05-07T16:10:32.758Z,20.84
2023-05-07T16:13:05.307Z,20.75
2023-05-07T16:15:34.270Z,21.02
2023-05-07T16:18:03.479Z,20.97
2023-05-07T16:20:32.925Z,20.78
2023-05-07T16:23:03.023Z,20.95
2023-05-07T16:25:33.590Z,20.86
2023-05-07T16:28:11.073Z,20.89
2023-05-07T16:30:39.740Z,21.11
2023-05-07T16:33:08.682Z,21.11
2023-05-07T16:35:44.283Z,21.08
2023-05-07T16:41:08.695Z,21.15
2023-05-07T16:43:41.229Z,21.07
2023-05-07T16:46:13.204Z,21.01
2023-05-07T16:48:43.596Z,21.12
2023-05-07T16:51:16.082Z,20.81
2023-05-07T16:53:46.630Z,21.04
2023-05-07T16:56:19.198Z,20.84
2023-05-07T16:58:48.625Z,21.43
2023-05-07T17:01:19.109Z,21.23
2023-05-07T17:03:53.701Z,20.98
2023-05-07T17:06:22.957Z,21.42
2023-05-07T17:08:57.100Z,21.44
2023-05-07T17:11:44.580Z,21.23
2023-05-07T17:14:20.219Z,20.96
2023-05-07T17:16:49.856Z,21.09
2023-05-07T17:19:20.968Z,20.93
2023-05-07T17:21:50.427Z,21.46
2023-05-07T17:24:22.064Z,21.26
2023-05-07T17:26:53.333Z,21.19
2023-05-07T17:29:23.828Z,21.36
2023-05-07T17:31:58.477Z,21.24
2023-05-07T17:34:36.166Z,21.44
2023-05-07T17:37:07.110Z,21.17
2023-05-07T17:39:37.382Z,21.28
2023-05-07T17:42:08.822Z,21.73
2023-05-07T17:44:40.981Z,21.54
2023-05-07T17:47:13.580Z,21.68
2023-05-07T17:49:43.196Z,21.83
2023-05-07T17:52:14.713Z,21.77
2023-05-07T17:54:44.022Z,21.89
2023-05-07T17:57:15.214Z,21.85
2023-05-07T17:59:43.848Z,21.89
2023-05-07T18:02:48.455Z,21.88
2023-05-07T18:05:37.155Z,21.78
2023-05-07T18:08:19.129Z,21.48
2023-05-07T18:11:03.832Z,21.81
2023-05-07T18:13:50.134Z,21.75
2023-05-07T18:16:30.344Z,21.55
2023-05-07T18:19:17.670Z,21.44
2023-05-07T18:22:15.056Z,21.04
2023-05-07T18:24:54.244Z,20.78
2023-05-07T18:27:30.598Z,20.84
2023-05-07T18:30:18.925Z,20.30
2023-05-07T18:32:54.750Z,20.10
2023-05-07T18:35:31.640Z,20.74
2023-05-07T18:38:15.387Z,20.60
2023-05-07T18:40:55.517Z,20.98
2023-05-07T18:43:43.247Z,20.76
2023-05-07T18:46:21.665Z,20.71
2023-05-07T18:49:05.623Z,20.85
2023-05-07T18:51:57.916Z,20.65
2023-05-07T18:54:46.011Z,20.41
2023-05-07T18:57:18.133Z,20.73
2023-05-07T18:59:49.487Z,20.71
2023-05-07T19:02:27.827Z,20.38
2023-05-07T19:05:01.518Z,20.72
2023-05-07T19:07:35.097Z,20.51
2023-05-07T19:10:06.561Z,20.12
2023-05-07T19:12:52.248Z,20.51
2023-05-07T19:15:25.350Z,20.28
2023-05-07T19:21:06.833Z,20.61
2023-05-07T19:23:42.137Z,20.71
2023-05-07T19:26:12.042Z,20.76
2023-05-07T19:28:45.888Z,20.74
2023-05-07T19:31:21.834Z,20.67
2023-05-07T19:33:53.045Z,20.64
2023-05-07T19:36:26.879Z,20.67
2023-05-07T19:38:57.444Z,20.66
2023-05-07T19:41:26.279Z,20.65
2023-05-07T19:43:55.932Z,20.58
2023-05-07T19:46:25.158Z,20.60
2023-05-07T19:48:58.824Z,20.48
2023-05-07T19:51:33.962Z,20.60
2023-05-07T19:54:03.924Z,20.26
2023-05-07T19:56:33.369Z,20.38
2023-05-07T19:59:04.520Z,20.51
2023-05-07T20:01:36.517Z,20.50
2023-05-07T20:04:12.009Z,20.42
2023-05-07T20:06:46.226Z,20.38
2023-05-07T20:09:18.274Z,20.34
2023-05-07T20:11:47.692Z,20.17
2023-05-07T20:14:18.052Z,20.17
2023-05-07T20:16:48.226Z,20.02
2023-05-07T20:19:23.763Z,20.09
2023-05-07T20:21:54.204Z,19.95
2023-05-07T20:24:24.863Z,19.97
2023-05-07T20:27:00.259Z,19.92
2023-05-07T20:29:51.086Z,19.80
2023-05-07T20:32:23.841Z,19.75
2023-05-07T20:35:00.044Z,19.65
2023-05-07T20:37:29.784Z,19.67
2023-05-07T20:40:01.770Z,19.61
2023-05-07T20:42:36.617Z,19.48
2023-05-07T20:45:07.094Z,19.40
2023-05-07T20:47:38.863Z,19.34
2023-05-07T20:50:13.919Z,19.25
2023-05-07T20:52:44.366Z,19.18
2023-05-07T20:55:14.747Z,19.19
2023-05-07T20:57:44.281Z,19.09
2023-05-07T21:00:18.330Z,19.07
2023-05-07T21:02:50.830Z,19.10
2023-05-07T21:05:21.855Z,19.09
2023-05-07T21:07:51.007Z,19.04
2023-05-07T21:10:19.805Z,19.04
2023-05-07T21:12:52.756Z,18.94
2023-05-07T21:15:23.531Z,18.90
2023-05-07T21:17:58.904Z,18.90
2023-05-07T21:20:30.927Z,18.94
2023-05-07T21:23:05.068Z,18.92
2023-05-07T21:25:36.481Z,18.93
2023-05-07T21:28:08.666Z,18.89
2023-05-07T21:30:39.320Z,18.80
2023-05-07T21:33:11.961Z,18.82
2023-05-07T21:35:43.742Z,18.70
2023-05-07T21:38:15.906Z,18.71
2023-05-07T21:40:48.294Z,18.56
2023-05-07T21:43:19.922Z,18.61
2023-05-07T21:45:53.500Z,18.77
2023-05-07T21:48:24.264Z,18.68
2023-05-07T21:51:05.869Z,18.73
2023-05-07T21:53:36.849Z,18.80
2023-05-07T21:56:10.246Z,18.83
2023-05-07T21:58:42.854Z,18.90
2023-05-07T22:01:15.881Z,19.04
2023-05-07T22:03:47.086Z,18.95
2023-05-07T22:06:21.954Z,18.97
2023-05-07T22:09:01.033Z,18.92
2023-05-07T22:11:31.104Z,18.89
2023-05-07T22:14:01.286Z,19.10
2023-05-07T22:16:35.558Z,19.17
2023-05-07T22:19:08.584Z,19.13
2023-05-07T22:21:49.107Z,19.11
2023-05-07T22:24:31.927Z,19.13
2023-05-07T22:27:01.162Z,19.13
2023-05-07T22:29:31.209Z,19.12
2023-05-07T22:32:02.478Z,19.08
2023-05-07T22:34:41.270Z,19.17
2023-05-07T22:37:13.493Z,19.10
2023-05-07T22:39:44.527Z,19.14
2023-05-07T22:42:13.412Z,19.01
2023-05-07T22:44:44.407Z,19.05
2023-05-07T22:47:16.738Z,19.21
2023-05-07T22:49:46.975Z,19.02
2023-05-07T22:52:18.932Z,18.96
2023-05-07T22:54:54.155Z,18.87
2023-05-07T22:57:23.903Z,18.98
2023-05-07T22:59:56.765Z,18.83
2023-05-07T23:02:38.706Z,18.92
2023-05-07T23:05:12.478Z,18.89
2023-05-07T23:07:46.875Z,18.81
2023-05-07T23:10:17.192Z,18.91
2023-05-07T23:12:50.536Z,18.89
2023-05-07T23:15:22.127Z,18.95
2023-05-07T23:17:54.228Z,18.80
2023-05-07T23:20:26.515Z,18.79
2023-05-07T23:23:00.197Z,18.70
2023-05-07T23:25:35.211Z,18.66
2023-05-07T23:28:51.264Z,18.56
2023-05-07T23:31:24.633Z,18.43
2023-05-07T23:33:57.687Z,18.41
2023-05-07T23:36:29.244Z,18.35
2023-05-07T23:39:00.738Z,18.23
2023-05-07T23:41:31.620Z,18.32
2023-05-07T23:44:01.026Z,18.33
2023-05-07T23:46:32.400Z,18.29
2023-05-07T23:49:02.787Z,18.29
2023-05-07T23:51:34.474Z,18.31
2023-05-07T23:54:06.001Z,18.24
2023-05-07T23:56:38.391Z,18.25
2023-05-07T23:59:09.404Z,18.20
